createdAt,value
2018-04-22T00:00:41.607Z,17.30
2018-04-22T00:03:09.180Z,17.30
2018-04-22T00:05:36.694Z,17.30
2018-04-22T00:08:04.987Z,17.30
2018-04-22T00:10:33.369Z,17.30
2018-04-22T00:13:00.914Z,17.30
2018-04-22T00:15:29.203Z,17.20
2018-04-22T00:17:56.746Z,17.20
2018-04-22T00:23:32.032Z,17.20
2018-04-22T00:25:59.571Z,17.30
2018-04-22T00:28:27.850Z,17.30
2018-04-22T00:30:55.374Z,17.30
2018-04-22T00:33:22.971Z,17.30
2018-04-22T00:35:50.512Z,17.30
2018-04-22T00:38:18.049Z,17.30
2018-04-22T00:40:45.610Z,17.30
2018-04-22T00:43:13.121Z,17.30
2018-04-22T00:45:40.646Z,17.30
2018-04-22T00:48:08.182Z,17.30
2018-04-22T00:50:35.716Z,17.30
2018-04-22T00:53:03.258Z,17.30
2018-04-22T00:55:30.867Z,17.30
2018-04-22T00:57:58.408Z,17.30
2018-04-22T01:00:31.047Z,17.30
2018-04-22T01:02:58.552Z,17.30
2018-04-22T01:05:26.131Z,17.40
2018-04-22T01:07:53.676Z,17.40
2018-04-22T01:13:14.402Z,17.40
2018-04-22T01:15:41.971Z,17.40
2018-04-22T01:18:10.266Z,17.40
2018-04-22T01:20:37.823Z,17.40
2018-04-22T01:23:06.151Z,17.40
2018-04-22T01:25:33.686Z,17.30
2018-04-22T01:28:01.211Z,17.30
2018-04-22T01:30:29.730Z,17.30
2018-04-22T01:32:57.304Z,17.30
2018-04-22T01:35:24.823Z,17.30
2018-04-22T01:37:52.364Z,17.30
2018-04-22T01:40:34.207Z,17.30
2018-04-22T01:43:01.771Z,17.30
2018-04-22T01:45:29.303Z,17.30
2018-04-22T01:47:56.841Z,17.30
2018-04-22T01:50:24.423Z,17.20
2018-04-22T01:52:51.961Z,17.20
2018-04-22T01:55:20.243Z,17.20
2018-04-22T01:57:48.562Z,17.20
2018-04-22T02:00:16.103Z,17.20
2018-04-22T02:02:43.635Z,17.20
2018-04-22T02:05:11.952Z,17.20
2018-04-22T02:07:39.466Z,17.10
2018-04-22T02:10:07.023Z,17.20
2018-04-22T02:12:34.549Z,17.20
2018-04-22T02:15:02.069Z,17.30
2018-04-22T02:17:29.627Z,17.30
2018-04-22T02:19:57.262Z,17.30
2018-04-22T02:22:24.774Z,17.30
2018-04-22T02:24:52.304Z,17.20
2018-04-22T02:27:19.848Z,17.20
2018-04-22T02:29:57.203Z,17.20
2018-04-22T02:32:25.538Z,17.20
2018-04-22T02:34:53.055Z,17.20
2018-04-22T02:37:20.598Z,17.20
2018-04-22T02:39:48.255Z,17.20
2018-04-22T02:42:15.813Z,17.20
2018-04-22T02:44:43.333Z,17.10
2018-04-22T02:47:10.858Z,17.10
2018-04-22T02:49:38.447Z,17.10
2018-04-22T02:52:05.962Z,17.10
2018-04-22T02:54:34.263Z,17.10
2018-04-22T02:57:01.834Z,17.10
2018-04-22T02:59:29.459Z,17.10
2018-04-22T03:01:57.028Z,17.10
2018-04-22T03:04:24.548Z,17.10
2018-04-22T03:06:52.110Z,17.10
2018-04-22T03:09:19.630Z,17.10
2018-04-22T03:11:47.197Z,17.10
2018-04-22T03:14:14.771Z,17.10
2018-04-22T03:16:42.282Z,17.00
2018-04-22T03:19:09.803Z,17.00
2018-04-22T03:21:37.339Z,17.00
2018-04-22T03:24:04.883Z,16.90
2018-04-22T03:26:32.394Z,16.90
2018-04-22T03:28:59.959Z,16.80
2018-04-22T03:31:27.531Z,16.80
2018-04-22T03:33:55.102Z,16.80
2018-04-22T03:36:23.434Z,16.80
2018-04-22T03:38:50.958Z,16.80
2018-04-22T03:41:18.487Z,16.80
2018-04-22T03:43:46.011Z,16.80
2018-04-22T03:46:13.531Z,16.80
2018-04-22T03:48:41.050Z,16.80
2018-04-22T03:51:08.596Z,16.80
2018-04-22T03:53:36.891Z,16.80
2018-04-22T03:56:04.409Z,16.80
2018-04-22T03:58:31.990Z,16.90
2018-04-22T04:00:59.568Z,16.90
2018-04-22T04:03:27.126Z,16.80
2018-04-22T04:05:54.625Z,16.70
2018-04-22T04:08:22.182Z,16.70
2018-04-22T04:10:49.747Z,16.50
2018-04-22T04:13:17.279Z,16.40
2018-04-22T04:15:44.809Z,16.30
2018-04-22T04:21:32.270Z,16.10
2018-04-22T04:27:31.523Z,15.60
2018-04-22T04:30:13.363Z,15.50
2018-04-22T04:32:40.894Z,15.40
2018-04-22T04:35:08.417Z,15.20
2018-04-22T04:37:35.991Z,15.10
2018-04-22T04:40:13.282Z,15.00
2018-04-22T04:42:40.854Z,14.90
2018-04-22T04:45:08.371Z,14.90
2018-04-22T04:47:35.885Z,14.80
2018-04-22T04:50:03.458Z,14.80
2018-04-22T04:52:31.758Z,14.70
2018-04-22T04:54:59.274Z,14.60
2018-04-22T04:57:26.834Z,14.70
2018-04-22T04:59:54.394Z,14.70
2018-04-22T05:02:21.908Z,14.70
2018-04-22T05:04:49.439Z,14.60
2018-04-22T05:07:17.778Z,14.40
2018-04-22T05:09:45.350Z,14.40
2018-04-22T05:12:12.863Z,14.40
2018-04-22T05:14:40.381Z,14.50
2018-04-22T05:17:07.977Z,14.50
2018-04-22T05:19:35.503Z,14.40
2018-04-22T05:22:03.786Z,14.30
2018-04-22T05:24:32.106Z,14.20
2018-04-22T05:26:59.662Z,14.20
2018-04-22T05:29:27.378Z,14.20
2018-04-22T05:31:54.901Z,14.30
2018-04-22T05:34:22.438Z,14.30
2018-04-22T05:36:49.959Z,14.30
2018-04-22T05:39:17.478Z,14.30
2018-04-22T05:41:45.028Z,14.20
2018-04-22T05:44:12.544Z,14.20
2018-04-22T05:46:40.067Z,14.20
2018-04-22T05:49:07.690Z,14.20
2018-04-22T05:51:35.278Z,14.20
2018-04-22T05:54:02.823Z,14.20
2018-04-22T05:56:30.379Z,14.20
2018-04-22T05:59:17.338Z,14.20
2018-04-22T06:01:44.887Z,14.20
2018-04-22T06:04:12.426Z,14.10
2018-04-22T06:06:39.959Z,14.00
2018-04-22T06:09:07.497Z,14.00
2018-04-22T06:11:35.022Z,13.90
2018-04-22T06:14:02.565Z,13.80
2018-04-22T06:16:30.136Z,13.80
2018-04-22T06:18:57.683Z,13.80
2018-04-22T06:21:25.231Z,13.90
2018-04-22T06:23:52.767Z,13.90
2018-04-22T06:26:20.290Z,13.90
2018-04-22T06:28:47.831Z,14.00
2018-04-22T06:31:16.103Z,14.10
2018-04-22T06:33:43.622Z,14.10
2018-04-22T06:36:11.192Z,14.10
2018-04-22T06:38:38.710Z,14.10
2018-04-22T06:41:07.007Z,14.10
2018-04-22T06:43:34.543Z,14.10
2018-04-22T06:46:02.081Z,14.10
2018-04-22T06:48:29.646Z,14.20
2018-04-22T06:50:57.170Z,14.20
2018-04-22T06:53:25.626Z,14.20
2018-04-22T06:55:53.147Z,14.10
2018-04-22T06:58:20.677Z,14.00
2018-04-22T07:00:48.193Z,14.00
2018-04-22T07:03:15.706Z,14.00
2018-04-22T07:05:44.051Z,14.00
2018-04-22T07:08:11.563Z,14.00
2018-04-22T07:10:39.200Z,14.10
2018-04-22T07:13:06.800Z,14.10
2018-04-22T07:15:34.326Z,14.10
2018-04-22T07:18:01.866Z,14.20
2018-04-22T07:23:22.586Z,14.30
2018-04-22T07:25:50.115Z,14.40
2018-04-22T07:28:17.655Z,14.40
2018-04-22T07:30:45.263Z,14.50
2018-04-22T07:33:12.797Z,14.60
2018-04-22T07:35:40.323Z,14.70
2018-04-22T07:38:07.904Z,14.70
2018-04-22T07:40:35.442Z,14.80
2018-04-22T07:43:02.976Z,14.90
2018-04-22T07:45:31.279Z,14.90
2018-04-22T07:47:58.803Z,14.90
2018-04-22T07:53:20.394Z,15.60
2018-04-22T07:55:47.901Z,16.20
2018-04-22T07:58:15.438Z,16.60
2018-04-22T08:00:43.054Z,17.10
2018-04-22T08:03:10.571Z,17.50
2018-04-22T08:05:38.863Z,18.30
2018-04-22T08:08:06.446Z,18.30
2018-04-22T08:10:34.118Z,18.40
2018-04-22T08:13:01.726Z,18.80
2018-04-22T08:15:29.257Z,19.10
2018-04-22T08:17:56.794Z,19.40
2018-04-22T08:23:18.146Z,20.30
2018-04-22T08:25:45.676Z,20.30
2018-04-22T08:28:13.225Z,20.50
2018-04-22T08:33:48.711Z,21.50
2018-04-22T08:36:16.287Z,21.40
2018-04-22T08:38:43.966Z,21.70
2018-04-22T08:41:11.503Z,22.00
2018-04-22T08:43:39.055Z,22.20
2018-04-22T08:46:06.597Z,22.50
2018-04-22T08:48:34.122Z,22.70
2018-04-22T08:51:01.712Z,22.90
2018-04-22T08:53:29.235Z,23.10
2018-04-22T08:55:57.919Z,23.40
2018-04-22T08:58:26.256Z,23.40
2018-04-22T09:00:53.773Z,23.40
2018-04-22T09:03:21.291Z,23.30
2018-04-22T09:05:48.840Z,23.20
2018-04-22T09:08:16.347Z,23.30
2018-04-22T09:10:43.862Z,23.40
2018-04-22T09:13:11.426Z,23.40
2018-04-22T09:15:38.955Z,23.50
2018-04-22T09:18:06.535Z,23.60
2018-04-22T09:20:34.083Z,23.50
2018-04-22T09:23:01.597Z,23.70
2018-04-22T09:25:29.131Z,23.80
2018-04-22T09:27:56.695Z,23.90
2018-04-22T09:30:24.205Z,23.90
2018-04-22T09:32:51.726Z,24.10
2018-04-22T09:35:19.267Z,24.20
2018-04-22T09:37:46.819Z,24.40
2018-04-22T09:40:14.335Z,24.50
2018-04-22T09:42:41.894Z,24.60
2018-04-22T09:45:09.419Z,24.80
2018-04-22T09:47:36.966Z,24.90
2018-04-22T09:50:04.523Z,24.80
2018-04-22T09:52:32.072Z,24.80
2018-04-22T09:55:00.390Z,25.00
2018-04-22T09:57:27.938Z,25.00
2018-04-22T09:59:55.519Z,25.10
2018-04-22T10:02:28.783Z,25.20
2018-04-22T10:04:56.346Z,25.30
2018-04-22T10:07:23.862Z,25.40
2018-04-22T10:12:44.503Z,25.70
2018-04-22T10:15:12.098Z,25.80
2018-04-22T10:17:39.632Z,25.80
2018-04-22T10:20:07.163Z,25.80
2018-04-22T10:22:34.735Z,25.70
2018-04-22T10:25:03.011Z,25.50
2018-04-22T10:27:30.555Z,25.50
2018-04-22T10:29:58.286Z,25.40
2018-04-22T10:32:25.798Z,25.30
2018-04-22T10:34:54.090Z,25.00
2018-04-22T10:37:21.659Z,25.00
2018-04-22T10:39:49.288Z,24.90
2018-04-22T10:42:16.850Z,25.00
2018-04-22T10:44:44.426Z,25.00
2018-04-22T10:47:12.034Z,25.00
2018-04-22T10:49:39.709Z,25.10
2018-04-22T10:52:07.304Z,25.20
2018-04-22T10:54:34.827Z,25.30
2018-04-22T10:57:02.366Z,25.50
2018-04-22T10:59:29.910Z,25.70
2018-04-22T11:01:57.462Z,25.80
2018-04-22T11:04:25.013Z,26.00
2018-04-22T11:06:52.535Z,26.00
2018-04-22T11:09:20.056Z,26.00
2018-04-22T11:11:47.610Z,26.10
2018-04-22T11:14:15.203Z,26.20
2018-04-22T11:16:42.683Z,26.20
2018-04-22T11:19:10.411Z,26.30
2018-04-22T11:21:38.016Z,26.40
2018-04-22T11:24:05.550Z,26.50
2018-04-22T11:26:33.088Z,26.60
2018-04-22T11:29:00.659Z,26.70
2018-04-22T11:31:28.179Z,26.70
2018-04-22T11:33:55.718Z,26.80
2018-04-22T11:36:23.247Z,26.80
2018-04-22T11:39:14.730Z,26.80
2018-04-22T11:41:42.260Z,26.90
2018-04-22T11:44:09.778Z,27.10
2018-04-22T11:46:38.107Z,27.50
2018-04-22T11:49:05.732Z,27.50
2018-04-22T11:51:33.263Z,27.50
2018-04-22T11:54:00.842Z,27.50
2018-04-22T11:56:28.361Z,27.50
2018-04-22T11:58:55.870Z,27.60
2018-04-22T12:01:23.449Z,27.70
2018-04-22T12:03:50.987Z,27.80
2018-04-22T12:06:18.490Z,27.90
2018-04-22T12:09:10.031Z,27.90
2018-04-22T12:11:37.559Z,27.90
2018-04-22T12:14:05.118Z,27.90
2018-04-22T12:16:32.642Z,27.90
2018-04-22T12:19:09.922Z,28.00
2018-04-22T12:21:37.479Z,28.00
2018-04-22T12:24:05.006Z,28.00
2018-04-22T12:26:32.574Z,28.10
2018-04-22T12:29:00.066Z,28.10
2018-04-22T12:31:27.591Z,28.10
2018-04-22T12:33:55.140Z,28.10
2018-04-22T12:36:22.687Z,28.10
2018-04-22T12:38:50.211Z,28.10
2018-04-22T12:41:17.746Z,28.00
2018-04-22T12:43:45.263Z,27.70
2018-04-22T12:46:12.774Z,27.50
2018-04-22T12:48:40.348Z,27.50
2018-04-22T12:51:07.875Z,27.60
2018-04-22T12:53:36.163Z,27.40
2018-04-22T12:56:03.726Z,27.40
2018-04-22T12:58:31.231Z,27.30
2018-04-22T13:00:58.775Z,27.50
2018-04-22T13:03:26.322Z,27.70
2018-04-22T13:05:53.844Z,27.90
2018-04-22T13:08:21.379Z,28.00
2018-04-22T13:10:48.910Z,28.10
2018-04-22T13:13:16.519Z,28.10
2018-04-22T13:15:44.806Z,28.10
2018-04-22T13:18:12.375Z,28.10
2018-04-22T13:20:39.912Z,28.10
2018-04-22T13:23:07.447Z,28.10
2018-04-22T13:25:35.200Z,28.20
2018-04-22T13:28:02.710Z,28.30
2018-04-22T13:30:30.255Z,28.50
2018-04-22T13:32:57.792Z,28.50
2018-04-22T13:35:25.327Z,28.60
2018-04-22T13:37:52.852Z,28.50
2018-04-22T13:40:20.355Z,28.50
2018-04-22T13:42:47.891Z,28.40
2018-04-22T13:45:15.425Z,28.50
2018-04-22T13:47:43.002Z,28.70
2018-04-22T13:50:24.767Z,28.80
2018-04-22T13:52:52.310Z,28.70
2018-04-22T13:55:20.607Z,28.60
2018-04-22T13:57:48.139Z,28.60
2018-04-22T14:00:15.723Z,28.70
2018-04-22T14:02:43.258Z,28.80
2018-04-22T14:05:10.822Z,28.90
2018-04-22T14:07:38.343Z,29.00
2018-04-22T14:10:06.070Z,29.10
2018-04-22T14:12:33.594Z,29.20
2018-04-22T14:15:01.909Z,29.20
2018-04-22T14:17:29.446Z,29.20
2018-04-22T14:19:56.959Z,29.30
2018-04-22T14:22:24.523Z,29.30
2018-04-22T14:24:52.042Z,29.30
2018-04-22T14:27:19.557Z,29.30
2018-04-22T14:29:47.926Z,29.30
2018-04-22T14:32:15.473Z,29.20
2018-04-22T14:34:42.992Z,29.40
2018-04-22T14:37:10.555Z,29.40
2018-04-22T14:39:38.069Z,29.40
2018-04-22T14:42:06.371Z,29.30
2018-04-22T14:44:45.703Z,29.30
2018-04-22T14:47:13.190Z,29.40
2018-04-22T14:49:40.718Z,29.60
2018-04-22T14:52:08.279Z,29.50
2018-04-22T14:54:35.864Z,29.40
2018-04-22T14:57:03.374Z,29.30
2018-04-22T14:59:40.630Z,29.20
2018-04-22T15:02:08.155Z,29.10
2018-04-22T15:04:35.687Z,29.00
2018-04-22T15:07:04.014Z,29.00
2018-04-22T15:09:31.532Z,29.00
2018-04-22T15:11:59.077Z,28.90
2018-04-22T15:14:26.648Z,28.90
2018-04-22T15:16:54.194Z,28.80
2018-04-22T15:19:22.484Z,28.70
2018-04-22T15:21:50.032Z,28.60
2018-04-22T15:24:17.559Z,28.40
2018-04-22T15:26:45.090Z,28.50
2018-04-22T15:29:12.636Z,28.50
2018-04-22T15:31:40.158Z,28.50
2018-04-22T15:34:07.697Z,28.60
2018-04-22T15:36:35.265Z,28.70
2018-04-22T15:39:02.795Z,28.60
2018-04-22T15:41:30.310Z,28.50
2018-04-22T15:43:57.851Z,28.30
2018-04-22T15:46:26.143Z,28.30
2018-04-22T15:48:53.690Z,28.30
2018-04-22T15:51:22.018Z,28.30
2018-04-22T15:53:49.535Z,28.20
2018-04-22T15:56:17.075Z,28.30
2018-04-22T15:58:45.393Z,28.20
2018-04-22T16:01:12.915Z,28.20
2018-04-22T16:03:40.491Z,27.90
2018-04-22T16:06:08.075Z,27.70
2018-04-22T16:08:35.607Z,27.30
2018-04-22T16:11:03.126Z,26.80
2018-04-22T16:13:30.710Z,26.50
2018-04-22T16:15:59.031Z,26.20
2018-04-22T16:18:26.560Z,26.20
2018-04-22T16:20:59.310Z,26.10
2018-04-22T16:23:26.839Z,26.00
2018-04-22T16:25:54.366Z,25.90
2018-04-22T16:28:21.977Z,25.80
2018-04-22T16:30:49.484Z,25.80
2018-04-22T16:33:16.986Z,25.80
2018-04-22T16:35:44.555Z,25.70
2018-04-22T16:38:12.054Z,25.70
2018-04-22T16:40:44.863Z,25.60
2018-04-22T16:43:12.387Z,25.50
2018-04-22T16:45:39.936Z,25.30
2018-04-22T16:48:07.497Z,25.00
2018-04-22T16:53:42.576Z,24.50
2018-04-22T16:56:10.120Z,24.40
2018-04-22T16:58:37.616Z,24.30
2018-04-22T17:01:05.167Z,24.10
2018-04-22T17:03:32.674Z,24.00
2018-04-22T17:06:01.003Z,24.10
2018-04-22T17:08:28.535Z,24.00
2018-04-22T17:10:56.054Z,24.10
2018-04-22T17:13:23.603Z,24.00
2018-04-22T17:15:51.139Z,23.90
2018-04-22T17:18:18.679Z,23.70
2018-04-22T17:20:46.271Z,23.60
2018-04-22T17:23:13.790Z,23.60
2018-04-22T17:25:41.318Z,23.50
2018-04-22T17:28:08.879Z,23.40
2018-04-22T17:33:30.874Z,23.20
2018-04-22T17:35:58.390Z,23.10
2018-04-22T17:38:26.682Z,23.00
2018-04-22T17:43:47.371Z,22.80
2018-04-22T17:46:15.048Z,22.70
2018-04-22T17:48:42.569Z,22.60
2018-04-22T17:51:10.083Z,22.50
2018-04-22T17:53:37.622Z,22.40
2018-04-22T17:56:05.929Z,22.30
2018-04-22T17:58:33.446Z,22.30
2018-04-22T18:01:01.011Z,22.30
2018-04-22T18:03:28.585Z,22.30
2018-04-22T18:05:56.165Z,22.20
2018-04-22T18:08:23.697Z,22.10
2018-04-22T18:10:51.246Z,22.00
2018-04-22T18:13:18.783Z,21.90
2018-04-22T18:15:46.307Z,21.90
2018-04-22T18:18:13.825Z,21.80
2018-04-22T18:20:41.429Z,21.80
2018-04-22T18:23:08.947Z,21.60
2018-04-22T18:25:36.463Z,21.50
2018-04-22T18:28:04.009Z,21.40
2018-04-22T18:36:17.450Z,21.20
2018-04-22T18:38:44.967Z,21.10
2018-04-22T18:41:12.480Z,21.10
2018-04-22T18:43:40.004Z,21.10
2018-04-22T18:46:07.523Z,21.10
2018-04-22T18:48:35.647Z,21.10
2018-04-22T18:51:03.186Z,21.00
2018-04-22T18:53:31.505Z,20.90
2018-04-22T18:55:59.014Z,20.90
2018-04-22T18:58:27.315Z,20.80
2018-04-22T19:00:54.835Z,20.80
2018-04-22T19:03:22.327Z,20.70
2018-04-22T19:05:49.856Z,20.70
2018-04-22T19:08:18.146Z,20.60
2018-04-22T19:10:46.507Z,20.60
2018-04-22T19:13:14.022Z,20.60
2018-04-22T19:15:41.547Z,20.50
2018-04-22T19:18:09.895Z,20.40
2018-04-22T19:20:37.497Z,20.40
2018-04-22T19:23:05.084Z,20.30
2018-04-22T19:25:32.606Z,20.20
2018-04-22T19:28:00.151Z,20.20
2018-04-22T19:30:32.813Z,20.20
2018-04-22T19:33:00.391Z,20.20
2018-04-22T19:35:28.710Z,20.10
2018-04-22T19:37:56.222Z,20.10
2018-04-22T19:40:38.884Z,20.10
2018-04-22T19:43:06.427Z,20.10
2018-04-22T19:45:33.950Z,20.10
2018-04-22T19:48:02.278Z,19.90
2018-04-22T19:50:29.854Z,19.90
2018-04-22T19:52:57.367Z,19.80
2018-04-22T19:55:24.903Z,19.80
2018-04-22T19:57:53.235Z,19.70
2018-04-22T20:00:25.686Z,19.60
2018-04-22T20:02:53.190Z,19.60
2018-04-22T20:05:20.742Z,19.50
2018-04-22T20:07:48.270Z,19.40
2018-04-22T20:10:15.807Z,19.30
2018-04-22T20:12:43.395Z,19.30
2018-04-22T20:15:10.940Z,19.30
2018-04-22T20:17:38.438Z,19.30
2018-04-22T20:20:05.975Z,19.30
2018-04-22T20:22:33.530Z,19.20
2018-04-22T20:25:01.071Z,19.20
2018-04-22T20:27:28.570Z,19.20
2018-04-22T20:29:56.169Z,19.20
2018-04-22T20:32:23.674Z,19.20
2018-04-22T20:34:51.195Z,19.20
2018-04-22T20:37:18.755Z,19.20
2018-04-22T20:42:39.177Z,19.10
2018-04-22T20:45:06.710Z,18.90
2018-04-22T20:47:34.246Z,18.90
2018-04-22T20:50:01.856Z,18.80
2018-04-22T20:52:29.399Z,18.80
2018-04-22T20:54:56.957Z,18.80
2018-04-22T20:57:24.507Z,18.70
2018-04-22T20:59:52.263Z,18.80
2018-04-22T21:02:19.786Z,18.70
2018-04-22T21:04:47.322Z,18.70
2018-04-22T21:07:14.854Z,18.70
2018-04-22T21:09:42.395Z,18.70
2018-04-22T21:12:09.950Z,18.70
2018-04-22T21:14:37.487Z,18.60
2018-04-22T21:17:05.010Z,18.60
2018-04-22T21:19:32.586Z,18.50
2018-04-22T21:22:00.106Z,18.40
2018-04-22T21:24:27.624Z,18.40
2018-04-22T21:26:55.160Z,18.40
2018-04-22T21:29:22.663Z,18.30
2018-04-22T21:31:50.202Z,18.30
2018-04-22T21:34:17.804Z,18.40
2018-04-22T21:36:45.331Z,18.40
2018-04-22T21:39:13.102Z,18.40
2018-04-22T21:41:40.625Z,18.40
2018-04-22T21:44:08.163Z,18.40
2018-04-22T21:46:35.694Z,18.40
2018-04-22T21:51:55.950Z,18.20
2018-04-22T21:54:23.453Z,18.10
2018-04-22T21:56:50.971Z,18.10
2018-04-22T21:59:18.583Z,18.10
2018-04-22T22:01:46.103Z,18.10
2018-04-22T22:04:14.395Z,18.20
2018-04-22T22:06:41.938Z,18.20
2018-04-22T22:09:10.235Z,18.10
2018-04-22T22:11:37.794Z,18.10
2018-04-22T22:14:06.066Z,18.10
2018-04-22T22:16:33.642Z,18.10
2018-04-22T22:19:01.219Z,18.10
2018-04-22T22:21:28.786Z,18.00
2018-04-22T22:23:56.331Z,18.00
2018-04-22T22:26:23.893Z,18.00
2018-04-22T22:28:51.420Z,18.10
2018-04-22T22:31:19.710Z,18.10
2018-04-22T22:33:47.257Z,18.10
2018-04-22T22:36:15.560Z,18.10
2018-04-22T22:38:43.118Z,18.10
2018-04-22T22:41:10.662Z,18.00
2018-04-22T22:43:38.173Z,17.90
2018-04-22T22:46:05.711Z,18.00
2018-04-22T22:48:33.352Z,18.00
2018-04-22T22:51:00.890Z,18.00
2018-04-22T22:53:28.438Z,18.00
2018-04-22T22:55:55.948Z,18.00
2018-04-22T22:58:23.503Z,18.00
2018-04-22T23:00:51.019Z,18.00
2018-04-22T23:03:18.517Z,18.00
2018-04-22T23:05:46.062Z,18.00
2018-04-22T23:08:13.595Z,17.90
2018-04-22T23:10:41.879Z,18.00
2018-04-22T23:13:09.443Z,17.90
2018-04-22T23:15:36.967Z,18.00
2018-04-22T23:18:04.493Z,18.00
2018-04-22T23:20:32.055Z,18.00
2018-04-22T23:22:59.598Z,18.00
2018-04-22T23:25:27.123Z,17.90
2018-04-22T23:27:55.452Z,17.80
2018-04-22T23:30:23.096Z,17.80
2018-04-22T23:32:50.624Z,17.80
2018-04-22T23:35:18.212Z,17.80
2018-04-22T23:37:45.726Z,17.80
2018-04-22T23:40:13.282Z,17.80
2018-04-22T23:42:41.647Z,17.80
2018-04-22T23:45:09.125Z,17.80
2018-04-22T23:47:37.406Z,17.80
2018-04-22T23:50:14.678Z,17.80
2018-04-22T23:52:42.203Z,17.80
2018-04-22T23:55:09.747Z,17.80
2018-04-22T23:57:37.311Z,17.80
